createdAt,value
2022-12-11T00:01:20.586Z,89.25
2022-12-11T00:04:23.418Z,89.62
2022-12-11T00:07:26.294Z,89.40
2022-12-11T00:10:30.230Z,89.47
2022-12-11T00:13:35.613Z,89.63
2022-12-11T00:16:38.147Z,89.65
2022-12-11T00:19:40.411Z,89.02
2022-12-11T00:22:42.970Z,89.32
2022-12-11T00:25:47.590Z,89.46
2022-12-11T00:28:54.426Z,88.99
2022-12-11T00:31:56.770Z,89.01
2022-12-11T00:34:59.340Z,89.06
2022-12-11T00:38:01.576Z,88.76
2022-12-11T00:41:04.185Z,88.90
2022-12-11T00:44:06.451Z,89.58
2022-12-11T00:47:09.001Z,88.76
2022-12-11T00:50:12.279Z,89.14
2022-12-11T00:53:14.971Z,88.84
2022-12-11T00:56:20.397Z,89.16
2022-12-11T00:59:22.936Z,88.90
2022-12-11T01:02:27.154Z,88.76
2022-12-11T01:05:31.825Z,88.48
2022-12-11T01:08:38.495Z,88.23
2022-12-11T01:11:43.278Z,88.65
2022-12-11T01:14:45.730Z,88.65
2022-12-11T01:17:48.285Z,88.60
2022-12-11T01:20:50.548Z,88.94
2022-12-11T01:23:53.341Z,88.34
2022-12-11T01:26:55.579Z,88.62
2022-12-11T01:29:58.209Z,88.42
2022-12-11T01:33:00.949Z,88.72
2022-12-11T01:36:15.078Z,88.88
2022-12-11T01:39:17.379Z,89.27
2022-12-11T01:42:20.733Z,88.49
2022-12-11T01:45:26.614Z,88.83
2022-12-11T01:48:32.204Z,88.74
2022-12-11T01:51:41.643Z,88.58
2022-12-11T01:54:44.694Z,88.67
2022-12-11T01:57:50.026Z,88.53
2022-12-11T02:00:53.518Z,88.74
2022-12-11T02:03:57.037Z,88.47
2022-12-11T02:06:59.569Z,88.24
2022-12-11T02:10:01.880Z,88.21
2022-12-11T02:13:13.010Z,87.94
2022-12-11T02:16:25.733Z,88.17
2022-12-11T02:19:55.973Z,87.24
2022-12-11T02:23:13.319Z,88.32
2022-12-11T02:26:34.556Z,87.63
2022-12-11T02:29:45.523Z,88.11
2022-12-11T02:32:55.405Z,87.68
2022-12-11T02:35:58.714Z,87.92
2022-12-11T02:39:03.087Z,87.70
2022-12-11T02:42:08.187Z,87.65
2022-12-11T02:45:12.704Z,87.78
2022-12-11T02:48:17.269Z,87.52
2022-12-11T02:51:25.357Z,86.97
2022-12-11T02:54:31.753Z,86.97
2022-12-11T02:57:58.211Z,87.43
2022-12-11T03:01:00.612Z,87.71
2022-12-11T03:04:03.153Z,86.68
2022-12-11T03:07:13.300Z,86.98
2022-12-11T03:10:21.595Z,87.44
2022-12-11T03:13:24.779Z,86.82
2022-12-11T03:16:36.817Z,86.87
2022-12-11T03:19:55.572Z,87.06
2022-12-11T03:23:21.693Z,87.18
2022-12-11T03:26:24.797Z,86.84
2022-12-11T03:29:35.254Z,87.71
2022-12-11T03:32:49.280Z,87.41
2022-12-11T03:35:56.980Z,86.51
2022-12-11T03:39:07.300Z,86.67
2022-12-11T03:42:13.128Z,86.82
2022-12-11T03:45:18.113Z,87.49
2022-12-11T03:48:21.490Z,87.29
2022-12-11T03:51:24.386Z,86.83
2022-12-11T03:54:27.679Z,87.26
2022-12-11T03:57:35.154Z,87.28
2022-12-11T04:00:38.393Z,87.20
2022-12-11T04:03:40.898Z,87.12
2022-12-11T04:06:43.222Z,86.87
2022-12-11T04:09:45.655Z,86.62
2022-12-11T04:12:47.901Z,87.14
2022-12-11T04:15:50.461Z,86.76
2022-12-11T04:19:11.387Z,87.39
2022-12-11T04:22:34.290Z,87.39
2022-12-11T04:25:36.577Z,86.87
2022-12-11T04:28:40.146Z,87.50
2022-12-11T04:31:42.435Z,87.32
2022-12-11T04:34:45.035Z,87.20
2022-12-11T04:37:47.513Z,87.23
2022-12-11T04:40:50.073Z,87.25
2022-12-11T04:43:52.349Z,87.51
2022-12-11T04:46:54.832Z,87.62
2022-12-11T04:49:57.081Z,87.54
2022-12-11T04:52:59.637Z,87.37
2022-12-11T04:56:04.979Z,87.41
2022-12-11T04:59:07.533Z,87.50
2022-12-11T05:02:09.728Z,87.32
2022-12-11T05:05:13.205Z,87.64
2022-12-11T05:08:15.708Z,87.61
2022-12-11T05:11:18.277Z,87.21
2022-12-11T05:14:21.015Z,87.22
2022-12-11T05:17:23.676Z,86.69
2022-12-11T05:20:25.899Z,86.91
2022-12-11T05:23:29.782Z,86.89
2022-12-11T05:26:32.014Z,87.07
2022-12-11T05:29:34.452Z,87.21
2022-12-11T05:32:36.703Z,87.07
2022-12-11T05:35:39.571Z,87.15
2022-12-11T05:38:41.860Z,86.47
2022-12-11T05:41:44.487Z,86.39
2022-12-11T05:44:46.869Z,86.91
2022-12-11T05:47:49.424Z,86.26
2022-12-11T05:50:59.670Z,86.83
2022-12-11T05:54:03.163Z,86.33
2022-12-11T05:57:05.423Z,86.50
2022-12-11T06:00:09.343Z,86.55
2022-12-11T06:03:11.965Z,86.45
2022-12-11T06:06:15.179Z,86.19
2022-12-11T06:09:17.650Z,86.31
2022-12-11T06:12:19.969Z,86.33
2022-12-11T06:15:22.466Z,86.52
2022-12-11T06:18:24.737Z,86.01
2022-12-11T06:21:30.074Z,86.59
2022-12-11T06:24:32.391Z,86.06
2022-12-11T06:27:35.377Z,86.37
2022-12-11T06:30:39.501Z,86.22
2022-12-11T06:33:42.595Z,86.52
2022-12-11T06:36:44.917Z,85.84
2022-12-11T06:39:47.437Z,85.55
2022-12-11T06:42:49.757Z,85.14
2022-12-11T06:45:52.684Z,85.07
2022-12-11T06:48:54.965Z,84.88
2022-12-11T06:51:57.475Z,85.17
2022-12-11T06:54:59.763Z,85.35
2022-12-11T06:58:02.290Z,85.48
2022-12-11T07:01:12.638Z,85.52
2022-12-11T07:04:15.270Z,85.15
2022-12-11T07:07:17.503Z,84.57
2022-12-11T07:10:20.352Z,84.70
2022-12-11T07:13:22.601Z,84.40
2022-12-11T07:16:25.136Z,83.99
2022-12-11T07:19:27.627Z,83.77
2022-12-11T07:22:30.638Z,83.80
2022-12-11T07:25:32.864Z,83.75
2022-12-11T07:28:35.898Z,83.08
2022-12-11T07:31:38.268Z,82.44
2022-12-11T07:34:41.542Z,82.18
2022-12-11T07:37:44.894Z,82.62
2022-12-11T07:40:47.429Z,82.79
2022-12-11T07:43:49.986Z,82.10
2022-12-11T07:46:52.447Z,81.57
2022-12-11T07:49:54.746Z,81.77
2022-12-11T07:52:57.244Z,81.62
2022-12-11T07:55:59.933Z,81.38
2022-12-11T07:59:04.566Z,81.45
2022-12-11T08:02:06.941Z,81.29
2022-12-11T08:05:10.086Z,81.16
2022-12-11T08:08:12.679Z,81.76
2022-12-11T08:11:15.786Z,81.49
2022-12-11T08:14:18.543Z,81.51
2022-12-11T08:17:25.867Z,81.33
2022-12-11T08:20:31.462Z,80.92
2022-12-11T08:23:34.636Z,81.26
2022-12-11T08:26:37.128Z,80.45
2022-12-11T08:29:39.657Z,79.96
2022-12-11T08:32:42.071Z,80.15
2022-12-11T08:35:46.380Z,79.68
2022-12-11T08:38:49.838Z,79.54
2022-12-11T08:41:52.344Z,79.81
2022-12-11T08:44:54.542Z,79.64
2022-12-11T08:47:58.736Z,79.46
2022-12-11T08:51:02.127Z,79.60
2022-12-11T08:54:04.630Z,79.11
2022-12-11T08:57:06.858Z,79.50
2022-12-11T09:00:13.164Z,79.03
2022-12-11T09:03:15.357Z,79.40
2022-12-11T09:06:20.560Z,79.13
2022-12-11T09:09:23.211Z,78.84
2022-12-11T09:12:25.860Z,79.36
2022-12-11T09:15:28.173Z,78.80
2022-12-11T09:18:30.836Z,79.05
2022-12-11T09:21:33.124Z,78.92
2022-12-11T09:24:36.162Z,78.88
2022-12-11T09:27:38.419Z,78.75
2022-12-11T09:30:40.935Z,78.47
2022-12-11T09:33:43.905Z,78.40
2022-12-11T09:36:47.193Z,78.43
2022-12-11T09:39:49.513Z,78.07
2022-12-11T09:43:03.213Z,78.49
2022-12-11T09:46:10.777Z,78.05
2022-12-11T09:49:33.773Z,78.18
2022-12-11T09:52:47.815Z,77.68
2022-12-11T09:55:56.441Z,78.12
2022-12-11T09:59:10.598Z,78.05
2022-12-11T10:02:22.274Z,77.36
2022-12-11T10:05:27.520Z,77.78
2022-12-11T10:08:53.315Z,77.46
2022-12-11T10:12:20.707Z,77.48
2022-12-11T10:15:28.879Z,77.03
2022-12-11T10:18:32.646Z,76.78
2022-12-11T10:21:40.836Z,76.62
2022-12-11T10:28:17.141Z,77.35
2022-12-11T10:31:49.543Z,76.94
2022-12-11T10:35:01.226Z,77.42
2022-12-11T10:38:14.992Z,76.96
2022-12-11T10:41:24.695Z,77.52
2022-12-11T10:44:29.966Z,77.19
2022-12-11T10:47:34.072Z,77.59
2022-12-11T10:50:37.958Z,77.84
2022-12-11T10:53:40.616Z,77.94
2022-12-11T10:56:47.283Z,78.05
2022-12-11T10:59:50.679Z,78.03
2022-12-11T11:02:53.524Z,77.61
2022-12-11T11:06:21.837Z,77.74
2022-12-11T11:09:36.831Z,77.84
2022-12-11T11:12:44.283Z,77.49
2022-12-11T11:15:47.309Z,77.22
2022-12-11T11:18:55.904Z,77.24
2022-12-11T11:22:14.217Z,77.26
2022-12-11T11:25:25.333Z,77.25
2022-12-11T11:28:36.231Z,76.73
2022-12-11T11:31:38.510Z,76.91
2022-12-11T11:34:41.553Z,76.62
2022-12-11T11:37:56.826Z,76.18
2022-12-11T11:41:36.372Z,76.34
2022-12-11T11:45:00.084Z,76.21
2022-12-11T11:48:13.864Z,76.38
2022-12-11T11:51:39.858Z,76.16
2022-12-11T11:55:22.705Z,76.34
2022-12-11T11:58:37.792Z,76.40
2022-12-11T12:01:42.599Z,76.02
2022-12-11T12:04:47.239Z,75.75
2022-12-11T12:08:05.138Z,75.45
2022-12-11T12:11:39.068Z,75.54
2022-12-11T12:14:53.664Z,75.05
2022-12-11T12:17:56.521Z,75.10
2022-12-11T12:21:04.916Z,74.74
2022-12-11T12:24:45.954Z,75.07
2022-12-11T12:28:07.295Z,74.81
2022-12-11T12:31:41.091Z,74.88
2022-12-11T12:35:11.370Z,75.07
2022-12-11T12:38:52.566Z,74.89
2022-12-11T12:42:07.500Z,75.04
2022-12-11T12:45:22.598Z,75.04
2022-12-11T12:48:27.286Z,74.81
2022-12-11T12:51:30.608Z,74.23
2022-12-11T12:54:35.589Z,73.90
2022-12-11T12:57:40.097Z,74.20
2022-12-11T13:00:43.955Z,74.37
2022-12-11T13:03:59.374Z,74.31
2022-12-11T13:07:13.149Z,74.57
2022-12-11T13:10:34.351Z,73.96
2022-12-11T13:13:51.591Z,73.74
2022-12-11T13:17:22.091Z,73.98
2022-12-11T13:20:30.777Z,73.98
2022-12-11T13:23:35.252Z,74.16
2022-12-11T13:26:37.545Z,74.17
2022-12-11T13:29:42.246Z,74.65
2022-12-11T13:33:12.654Z,73.90
2022-12-11T13:36:22.809Z,73.97
2022-12-11T13:39:30.432Z,73.97
2022-12-11T13:42:48.020Z,74.12
2022-12-11T13:45:53.439Z,73.62
2022-12-11T13:49:01.107Z,74.25
2022-12-11T13:52:04.974Z,74.15
2022-12-11T13:55:23.270Z,74.23
2022-12-11T13:58:26.691Z,74.29
2022-12-11T14:01:35.001Z,74.56
2022-12-11T14:04:37.941Z,75.19
2022-12-11T14:07:49.082Z,74.74
2022-12-11T14:10:54.038Z,75.01
2022-12-11T14:13:59.805Z,75.35
2022-12-11T14:17:02.611Z,74.89
2022-12-11T14:20:07.526Z,74.90
2022-12-11T14:23:24.030Z,75.13
2022-12-11T14:26:31.406Z,75.54
2022-12-11T14:29:34.076Z,75.66
2022-12-11T14:32:42.008Z,75.33
2022-12-11T14:35:46.629Z,75.72
2022-12-11T14:39:02.077Z,76.38
2022-12-11T14:42:12.354Z,76.21
2022-12-11T14:45:36.512Z,76.61
2022-12-11T14:48:46.270Z,77.48
2022-12-11T14:51:49.534Z,77.83
2022-12-11T14:55:03.543Z,77.50
2022-12-11T14:58:15.142Z,77.71
2022-12-11T15:01:32.922Z,77.58
2022-12-11T15:04:35.340Z,78.09
2022-12-11T15:07:39.027Z,77.87
2022-12-11T15:10:55.642Z,78.62
2022-12-11T15:14:01.049Z,78.03
2022-12-11T15:17:03.486Z,77.94
2022-12-11T15:20:20.425Z,77.75
2022-12-11T15:23:22.885Z,78.26
2022-12-11T15:26:37.448Z,77.31
2022-12-11T15:29:40.219Z,76.83
2022-12-11T15:32:42.854Z,76.57
2022-12-11T15:36:06.594Z,76.78
2022-12-11T15:39:09.460Z,75.85
2022-12-11T15:42:15.186Z,76.08
2022-12-11T15:45:23.384Z,75.60
2022-12-11T15:48:25.597Z,75.64
2022-12-11T15:51:29.140Z,75.39
2022-12-11T15:54:31.353Z,75.79
2022-12-11T15:57:34.595Z,75.39
2022-12-11T16:00:36.829Z,75.42
2022-12-11T16:03:39.435Z,75.45
2022-12-11T16:06:45.333Z,75.09
2022-12-11T16:09:48.236Z,75.07
2022-12-11T16:12:50.590Z,74.72
2022-12-11T16:15:54.327Z,74.74
2022-12-11T16:18:56.906Z,74.46
2022-12-11T16:21:59.496Z,74.15
2022-12-11T16:25:01.795Z,73.96
2022-12-11T16:28:05.629Z,74.16
2022-12-11T16:31:15.657Z,73.81
2022-12-11T16:34:18.241Z,73.96
2022-12-11T16:37:20.586Z,73.30
2022-12-11T16:40:23.381Z,73.44
2022-12-11T16:43:25.640Z,73.42
2022-12-11T16:46:28.186Z,73.37
2022-12-11T16:49:30.985Z,73.09
2022-12-11T16:52:34.071Z,72.94
2022-12-11T16:55:36.324Z,73.11
2022-12-11T16:58:40.536Z,72.68
2022-12-11T17:01:42.890Z,73.18
2022-12-11T17:04:52.121Z,73.23
2022-12-11T17:07:56.221Z,73.10
2022-12-11T17:10:58.808Z,73.43
2022-12-11T17:14:01.234Z,73.36
2022-12-11T17:17:03.788Z,72.50
2022-12-11T17:20:06.694Z,72.44
2022-12-11T17:23:10.850Z,72.33
2022-12-11T17:26:13.125Z,72.45
2022-12-11T17:29:15.753Z,71.97
2022-12-11T17:32:18.542Z,71.82
2022-12-11T17:35:21.065Z,72.34
2022-12-11T17:38:23.314Z,71.90
2022-12-11T17:41:25.923Z,72.32
2022-12-11T17:44:30.700Z,72.34
2022-12-11T17:47:33.358Z,72.15
2022-12-11T17:50:41.495Z,72.51
2022-12-11T17:53:45.003Z,72.34
2022-12-11T17:56:47.328Z,72.02
2022-12-11T17:59:49.948Z,72.33
2022-12-11T18:02:52.299Z,72.38
2022-12-11T18:05:57.163Z,72.77
2022-12-11T18:08:59.464Z,72.64
2022-12-11T18:12:01.984Z,72.95
2022-12-11T18:15:05.289Z,73.15
2022-12-11T18:18:08.975Z,73.24
2022-12-11T18:21:16.559Z,73.33
2022-12-11T18:24:19.954Z,73.00
2022-12-11T18:27:22.129Z,73.02
2022-12-11T18:30:26.104Z,73.10
2022-12-11T18:33:28.973Z,73.18
2022-12-11T18:36:32.597Z,73.44
2022-12-11T18:39:35.330Z,73.69
2022-12-11T18:42:38.364Z,74.19
2022-12-11T18:45:42.031Z,74.60
2022-12-11T18:48:45.763Z,74.88
2022-12-11T18:51:48.258Z,74.61
2022-12-11T18:54:52.334Z,74.45
2022-12-11T18:57:54.679Z,74.83
2022-12-11T19:00:57.349Z,74.71
2022-12-11T19:04:04.407Z,74.59
2022-12-11T19:07:09.129Z,74.40
2022-12-11T19:10:11.815Z,74.40
2022-12-11T19:13:14.870Z,74.40
2022-12-11T19:16:23.414Z,74.46
2022-12-11T19:19:26.048Z,74.60
2022-12-11T19:22:28.334Z,74.66
2022-12-11T19:25:30.960Z,74.39
2022-12-11T19:28:34.408Z,74.56
2022-12-11T19:31:37.014Z,74.71
2022-12-11T19:34:39.505Z,74.53
2022-12-11T19:37:42.411Z,74.61
2022-12-11T19:40:45.138Z,74.89
2022-12-11T19:43:48.727Z,74.96
2022-12-11T19:46:51.043Z,75.06
2022-12-11T19:49:53.830Z,74.73
2022-12-11T19:52:56.164Z,74.86
2022-12-11T19:55:58.745Z,74.73
2022-12-11T19:59:06.935Z,74.95
2022-12-11T20:02:11.797Z,75.15
2022-12-11T20:05:14.846Z,75.45
2022-12-11T20:08:47.158Z,75.93
2022-12-11T20:11:42.153Z,76.48
2022-12-11T20:14:44.451Z,76.85
2022-12-11T20:17:47.354Z,77.04
2022-12-11T20:20:49.587Z,77.60
2022-12-11T20:23:52.056Z,77.30
2022-12-11T20:26:56.950Z,77.67
2022-12-11T20:29:59.454Z,77.47
2022-12-11T20:33:01.753Z,77.45
2022-12-11T20:36:09.343Z,77.01
2022-12-11T20:39:11.596Z,77.52
2022-12-11T20:42:14.082Z,76.75
2022-12-11T20:45:16.520Z,76.62
2022-12-11T20:48:19.085Z,76.37
2022-12-11T20:51:25.859Z,76.52
2022-12-11T20:54:28.954Z,76.42
2022-12-11T20:57:31.218Z,76.06
2022-12-11T21:00:33.899Z,76.50
2022-12-11T21:03:41.772Z,76.60
2022-12-11T21:06:44.953Z,76.72
2022-12-11T21:09:47.274Z,76.69
2022-12-11T21:12:49.889Z,76.54
2022-12-11T21:15:56.337Z,76.94
2022-12-11T21:18:58.994Z,77.75
2022-12-11T21:22:01.309Z,78.29
2022-12-11T21:25:04.080Z,78.23
2022-12-11T21:28:06.414Z,78.48
2022-12-11T21:31:13.957Z,78.59
2022-12-11T21:34:20.668Z,79.00
2022-12-11T21:37:26.120Z,78.79
2022-12-11T21:40:29.207Z,78.23
2022-12-11T21:43:31.719Z,78.75
2022-12-11T21:46:34.196Z,78.67
2022-12-11T21:49:37.452Z,78.95
2022-12-11T21:52:40.960Z,79.05
2022-12-11T21:55:43.504Z,79.00
2022-12-11T21:58:47.369Z,79.07
2022-12-11T22:01:52.132Z,79.02
2022-12-11T22:04:54.784Z,79.09
2022-12-11T22:07:57.287Z,78.52
2022-12-11T22:11:01.047Z,78.46
2022-12-11T22:14:03.789Z,78.70
2022-12-11T22:17:06.378Z,79.02
2022-12-11T22:20:09.203Z,79.26
2022-12-11T22:23:12.090Z,79.52
2022-12-11T22:26:22.735Z,80.22
2022-12-11T22:29:25.284Z,80.20
2022-12-11T22:32:27.813Z,80.36
2022-12-11T22:35:30.457Z,80.85
2022-12-11T22:38:34.349Z,80.97
2022-12-11T22:41:41.973Z,81.58
2022-12-11T22:44:44.229Z,81.45
2022-12-11T22:47:46.793Z,81.18
2022-12-11T22:50:49.043Z,81.18
2022-12-11T22:53:51.586Z,81.29
2022-12-11T22:56:53.850Z,81.26
2022-12-11T22:59:57.143Z,81.00
2022-12-11T23:02:59.468Z,80.61
2022-12-11T23:06:06.874Z,80.71
2022-12-11T23:09:10.478Z,81.22
2022-12-11T23:12:12.979Z,80.60
2022-12-11T23:15:15.556Z,80.23
2022-12-11T23:18:18.148Z,80.69
2022-12-11T23:21:24.766Z,79.72
2022-12-11T23:24:27.343Z,79.95
2022-12-11T23:27:29.715Z,80.29
2022-12-11T23:30:33.288Z,80.47
2022-12-11T23:33:35.613Z,80.49
2022-12-11T23:36:38.180Z,80.32
2022-12-11T23:39:40.479Z,80.13
2022-12-11T23:42:43.007Z,80.31
2022-12-11T23:45:46.062Z,80.07
2022-12-11T23:48:49.032Z,80.41
2022-12-11T23:51:51.327Z,79.77
2022-12-11T23:54:55.370Z,79.91
2022-12-11T23:57:58.435Z,79.62
